Terminal Aerodrome Forecast
Issued by NWS

Home | Current Version | Previous Version | Graphics & Text | Print | Product List | Glossary On
Versions: 1 2 3 4 5 6 7 8 9 10 11 12 13 14 15 16 17 18
000
FTUS43 KICT 312341
TAFSLN
TAF
KSLN 312341Z 0100/0124 12007KT P6SM SCT025
     FM010800 14005KT 5SM BR SCT008 BKN012
     FM011500 15014KT P6SM SCT020 BKN035=

USA.gov is the U.S. government's official web portal to all federal, state and local government web resources and services.